Weather at Sultan Syarif Haroen Setia Negara Airport

Public forecast

Using degrees Celsius for public forecast. Weather courtesy of forecast.io.

Closest aviation weather report (METAR) to Sultan Syarif Haroen Setia Negara Airport

Closest report is Sultan Syarif Kasim II International Airport / Roesmin Nurjadin AFB, 28.9 nm (53.5 km) W.

2024/05/22 08:00 (retrieved 26 minutes ago)

WIBB 220800Z 25003KT 210V290 9999 FEW012 30/25 Q1005 NOSIG

Closest aviation forecast (TAF) to Sultan Syarif Haroen Setia Negara Airport

Closest forecast is Malacca International Airport, 107.9 nm (199.8 km) N.

2024/05/22 06:00 (retrieved 2 hours ago)

TAF WMKM 220500Z 2206/2306 14006KT 9999 FEW018 TEMPO 2222/2302 3000 +TSRA FEW016CB SCT027